Terminal Aerodrome Forecast
Issued by NWS

Home | Current Version | Previous Version | Text Only | Print | Product List | Glossary On
Versions: 1 2 3 4 5 6 7 8 9 10 11 12 13 14 15 16 17 18 19 20 21 22
000
FTUS44 KLZK 270500 CCA
TAFPBF
TAF COR
KPBF 270551Z 2706/2806 05009KT P6SM SCT020 OVC150
      TEMPO 2708/2712 BKN018
     FM271400 09010KT P6SM VCSH BKN035 BKN100
     FM280300 04011KT 5SM -SHRA BKN035=

USA.gov is the U.S. government's official web portal to all federal, state and local government web resources and services.